createdAt,value
2019-03-01T01:18:19.257Z,87.20
2019-03-01T01:20:47.870Z,87.60
2019-03-01T01:23:16.437Z,87.50
2019-03-01T01:25:45.081Z,87.50
2019-03-01T01:28:13.678Z,87.30
2019-03-01T01:30:42.278Z,87.30
2019-03-01T01:33:10.874Z,87.10
2019-03-01T01:35:39.442Z,86.70
2019-03-01T01:38:08.009Z,86.50
2019-03-01T01:40:36.603Z,86.20
2019-03-01T01:43:05.161Z,86.30
2019-03-01T01:45:33.785Z,86.10
2019-03-01T01:48:02.357Z,86.00
2019-03-01T01:50:30.934Z,86.00
2019-03-01T01:52:59.517Z,86.00
2019-03-01T01:55:28.086Z,86.20
2019-03-01T01:57:56.760Z,86.10
2019-03-01T02:00:25.401Z,86.40
2019-03-01T02:02:53.969Z,87.20
2019-03-01T02:05:22.593Z,88.60
2019-03-01T02:07:51.208Z,90.10
2019-03-01T02:10:19.850Z,91.10
2019-03-01T02:12:48.462Z,91.70
2019-03-01T02:15:17.082Z,92.80
2019-03-01T02:17:45.726Z,92.60
2019-03-01T02:20:14.342Z,92.80
2019-03-01T02:22:43.020Z,93.20
2019-03-01T02:25:12.107Z,93.30
2019-03-01T02:27:40.721Z,93.80
2019-03-01T02:30:13.066Z,94.20
2019-03-01T02:32:48.955Z,94.70
2019-03-01T02:35:19.712Z,95.10
2019-03-01T02:37:48.364Z,95.50
2019-03-01T02:40:17.071Z,95.80
2019-03-01T02:42:45.728Z,96.00
2019-03-01T02:45:16.170Z,96.10
2019-03-01T02:47:44.790Z,96.20
2019-03-01T02:50:13.487Z,96.40
2019-03-01T02:52:42.100Z,96.40
2019-03-01T02:55:13.263Z,96.50
2019-03-01T02:57:42.241Z,96.90
2019-03-01T03:00:16.448Z,97.00
2019-03-01T03:02:45.071Z,97.20
2019-03-01T03:05:13.727Z,97.20
2019-03-01T03:07:53.483Z,97.30
2019-03-01T03:10:22.151Z,97.40
2019-03-01T03:12:51.782Z,97.40
2019-03-01T03:15:28.238Z,97.60
2019-03-01T03:17:57.155Z,97.60
2019-03-01T03:20:25.781Z,97.60
2019-03-01T03:22:54.415Z,98.00
2019-03-01T03:25:23.043Z,97.60
2019-03-01T03:27:51.683Z,97.70
2019-03-01T03:30:20.336Z,97.90
2019-03-01T03:32:49.036Z,97.90
2019-03-01T03:35:17.747Z,98.00
2019-03-01T03:37:46.359Z,98.00
2019-03-01T03:40:15.801Z,98.10
2019-03-01T03:42:44.791Z,98.10
2019-03-01T03:45:13.487Z,98.20
2019-03-01T03:47:42.191Z,98.20
2019-03-01T03:50:11.682Z,98.30
2019-03-01T03:52:40.320Z,98.50
2019-03-01T03:55:10.411Z,98.60
2019-03-01T03:57:39.309Z,98.60
2019-03-01T04:00:11.853Z,98.60
2019-03-01T04:02:40.506Z,98.70
2019-03-01T04:05:09.127Z,98.70
2019-03-01T04:07:37.846Z,98.70
2019-03-01T04:10:06.589Z,98.80
2019-03-01T04:12:35.207Z,98.90
2019-03-01T04:15:04.070Z,98.90
2019-03-01T04:17:32.971Z,99.10
2019-03-01T04:20:01.952Z,99.10
2019-03-01T04:22:30.693Z,99.60
2019-03-01T04:24:59.430Z,99.20
2019-03-01T04:27:28.098Z,99.20
2019-03-01T04:29:56.835Z,99.10
2019-03-01T04:32:25.458Z,99.10
2019-03-01T04:34:54.410Z,99.30
2019-03-01T04:37:23.388Z,99.30
2019-03-01T04:39:52.009Z,99.50
2019-03-01T04:42:20.695Z,99.60
2019-03-01T04:44:49.337Z,99.70
2019-03-01T04:47:17.958Z,99.70
2019-03-01T04:49:47.834Z,99.50
2019-03-01T04:52:30.450Z,99.70
2019-03-01T04:54:59.072Z,99.80
2019-03-01T04:57:27.763Z,99.90
2019-03-01T04:59:56.402Z,99.80
2019-03-01T05:02:25.025Z,99.70
2019-03-01T05:04:53.665Z,99.80
2019-03-01T05:07:22.290Z,99.70
2019-03-01T05:09:51.082Z,99.80
2019-03-01T05:12:19.813Z,99.80
2019-03-01T05:14:48.453Z,99.90
2019-03-01T05:17:17.102Z,99.90
2019-03-01T05:19:45.726Z,99.90
2019-03-01T05:22:14.350Z,99.90
2019-03-01T05:24:42.989Z,99.90
2019-03-01T05:27:11.680Z,99.90
2019-03-01T05:29:40.394Z,99.90
2019-03-01T05:32:09.019Z,99.90
2019-03-01T05:34:37.642Z,99.90
2019-03-01T05:37:06.291Z,99.90
2019-03-01T05:39:34.906Z,99.90
2019-03-01T05:42:03.581Z,99.90
2019-03-01T05:44:32.246Z,99.90
2019-03-01T05:47:00.953Z,99.90
2019-03-01T05:49:29.600Z,99.90
2019-03-01T05:51:58.214Z,99.90
2019-03-01T05:54:26.869Z,99.90
2019-03-01T05:56:55.489Z,99.90
2019-03-01T05:59:25.951Z,99.90
2019-03-01T06:02:19.346Z,99.90
2019-03-01T06:04:51.933Z,99.90
2019-03-01T06:08:02.579Z,99.90
2019-03-01T06:10:36.711Z,99.90
2019-03-01T06:13:45.108Z,99.90
2019-03-01T06:16:48.825Z,99.90
2019-03-01T06:20:04.240Z,99.90
2019-03-01T06:23:01.146Z,99.90
2019-03-01T06:26:14.770Z,99.90
2019-03-01T06:29:11.186Z,99.90
2019-03-01T06:32:39.133Z,99.90
2019-03-01T06:35:39.354Z,99.90
2019-03-01T06:39:10.277Z,99.90
2019-03-01T06:42:14.103Z,99.90
2019-03-01T06:45:10.223Z,99.90
2019-03-01T06:47:47.961Z,99.90
2019-03-01T06:50:18.199Z,99.90
2019-03-01T06:52:46.835Z,99.90
2019-03-01T06:55:43.694Z,99.90
2019-03-01T06:58:33.158Z,99.90
2019-03-01T07:01:06.784Z,99.90
2019-03-01T07:04:17.157Z,99.90
2019-03-01T07:06:46.567Z,99.90
2019-03-01T07:09:15.595Z,99.90
2019-03-01T07:11:44.701Z,99.90
2019-03-01T07:14:13.767Z,99.90
2019-03-01T07:16:42.925Z,99.90
2019-03-01T07:19:11.978Z,99.90
2019-03-01T07:21:41.013Z,99.90
2019-03-01T07:24:10.018Z,99.90
2019-03-01T07:26:39.191Z,99.90
2019-03-01T07:29:08.285Z,99.90
2019-03-01T07:31:37.468Z,99.90
2019-03-01T07:34:09.677Z,99.90
2019-03-01T07:36:41.569Z,99.90
2019-03-01T07:39:10.912Z,99.90
2019-03-01T07:41:39.943Z,99.90
2019-03-01T07:44:09.009Z,99.80
2019-03-01T07:46:38.210Z,99.90
2019-03-01T07:49:07.380Z,99.90
2019-03-01T07:51:36.448Z,99.60
2019-03-01T07:54:05.499Z,99.80
2019-03-01T07:56:36.985Z,99.50
2019-03-01T07:59:05.571Z,99.90
2019-03-01T08:01:34.719Z,99.80
2019-03-01T08:04:04.145Z,99.90
2019-03-01T08:06:33.248Z,99.90
2019-03-01T08:09:02.376Z,99.90
2019-03-01T08:11:31.744Z,99.90
2019-03-01T08:14:01.618Z,99.90
2019-03-01T08:16:30.652Z,99.90
2019-03-01T08:19:00.159Z,99.90
2019-03-01T08:21:29.527Z,99.90
2019-03-01T08:23:58.661Z,99.90
2019-03-01T08:26:30.812Z,99.90
2019-03-01T08:29:01.464Z,99.90
2019-03-01T08:31:30.509Z,99.90
2019-03-01T08:33:59.681Z,99.90
2019-03-01T08:36:28.786Z,99.90
2019-03-01T08:39:00.913Z,99.90
2019-03-01T08:41:28.812Z,99.90
2019-03-01T08:43:58.004Z,99.90
2019-03-01T08:46:27.549Z,99.90
2019-03-01T08:48:57.079Z,99.90
2019-03-01T08:51:26.581Z,99.90
2019-03-01T08:53:56.694Z,99.90
2019-03-01T08:56:26.477Z,99.90
2019-03-01T08:58:56.087Z,99.90
2019-03-01T09:01:26.020Z,99.80
2019-03-01T09:03:58.819Z,99.60
2019-03-01T09:06:28.284Z,98.40
2019-03-01T09:08:57.409Z,98.50
2019-03-01T09:11:26.619Z,98.50
2019-03-01T09:13:55.738Z,98.00
2019-03-01T09:16:24.823Z,98.10
2019-03-01T09:18:53.859Z,97.70
2019-03-01T09:21:22.973Z,98.00
2019-03-01T09:23:54.861Z,96.80
2019-03-01T09:26:22.782Z,96.70
2019-03-01T09:28:52.497Z,96.60
2019-03-01T09:31:21.454Z,96.80
2019-03-01T09:33:53.668Z,96.30
2019-03-01T09:36:28.800Z,96.80
2019-03-01T09:38:57.843Z,96.60
2019-03-01T09:41:26.860Z,96.60
2019-03-01T09:43:55.980Z,96.70
2019-03-01T09:46:28.130Z,96.60
2019-03-01T09:48:56.172Z,96.20
2019-03-01T09:51:25.285Z,96.60
2019-03-01T09:53:54.354Z,96.40
2019-03-01T09:56:24.424Z,96.00
2019-03-01T09:58:53.607Z,95.80
2019-03-01T10:01:22.760Z,95.40
2019-03-01T10:03:51.873Z,94.80
2019-03-01T10:06:20.977Z,94.30
2019-03-01T10:08:50.064Z,93.60
2019-03-01T10:11:19.229Z,94.30
2019-03-01T10:13:48.361Z,94.00
2019-03-01T10:16:17.510Z,93.70
2019-03-01T10:18:46.662Z,94.20
2019-03-01T10:21:15.756Z,93.60
2019-03-01T10:23:44.870Z,93.70
2019-03-01T10:26:13.944Z,93.70
2019-03-01T10:28:42.831Z,93.80
2019-03-01T10:31:11.995Z,94.70
2019-03-01T10:33:41.129Z,94.90
2019-03-01T10:36:10.247Z,94.30
2019-03-01T10:38:39.299Z,94.70
2019-03-01T10:41:08.316Z,94.50
2019-03-01T10:43:37.361Z,94.30
2019-03-01T10:46:06.315Z,94.70
2019-03-01T10:48:35.350Z,94.30
2019-03-01T10:51:04.414Z,94.10
2019-03-01T10:53:33.475Z,93.80
2019-03-01T10:56:02.701Z,93.50
2019-03-01T10:58:31.858Z,91.90
2019-03-01T11:01:00.842Z,91.70
2019-03-01T11:03:30.417Z,91.20
2019-03-01T11:05:59.511Z,91.40
2019-03-01T11:08:28.659Z,91.60
2019-03-01T11:10:57.774Z,91.90
2019-03-01T11:13:26.884Z,92.20
2019-03-01T11:15:56.012Z,92.10
2019-03-01T11:18:26.338Z,92.40
2019-03-01T11:20:55.593Z,92.40
2019-03-01T11:23:24.715Z,92.30
2019-03-01T11:25:53.698Z,92.00
2019-03-01T11:28:22.823Z,92.00
2019-03-01T11:30:51.883Z,92.00
2019-03-01T11:33:21.015Z,91.70
2019-03-01T11:35:50.121Z,92.40
2019-03-01T11:38:19.259Z,92.20
2019-03-01T11:40:48.294Z,92.60
2019-03-01T11:43:17.773Z,92.60
2019-03-01T11:45:46.831Z,92.70
2019-03-01T11:48:15.895Z,92.40
2019-03-01T11:50:45.215Z,92.30
2019-03-01T11:53:14.324Z,92.00
2019-03-01T11:55:43.442Z,91.10
2019-03-01T11:58:12.581Z,90.40
2019-03-01T12:00:41.686Z,90.80
2019-03-01T12:03:10.755Z,90.90
2019-03-01T12:05:39.872Z,91.40
2019-03-01T12:08:09.340Z,90.90
2019-03-01T12:10:38.477Z,90.60
2019-03-01T12:13:07.597Z,90.70
2019-03-01T12:15:36.671Z,90.60
2019-03-01T12:18:05.791Z,90.60
2019-03-01T12:20:35.332Z,90.90
2019-03-01T12:23:04.487Z,91.10
2019-03-01T12:25:33.631Z,91.20
2019-03-01T12:28:02.847Z,91.30
2019-03-01T12:30:31.960Z,91.50
2019-03-01T12:33:01.004Z,91.80
2019-03-01T12:35:30.064Z,91.90
2019-03-01T12:37:59.186Z,91.80
2019-03-01T12:40:28.358Z,92.10
2019-03-01T12:42:57.448Z,91.50
2019-03-01T12:45:26.581Z,91.50
2019-03-01T12:47:55.799Z,91.30
2019-03-01T12:50:24.837Z,91.50
2019-03-01T12:52:53.915Z,91.60
2019-03-01T12:55:23.317Z,91.60
2019-03-01T12:57:52.510Z,91.40
2019-03-01T13:00:26.794Z,90.80
2019-03-01T13:02:56.193Z,90.80
2019-03-01T13:05:25.635Z,90.70
2019-03-01T13:07:56.186Z,90.90
2019-03-01T13:10:26.645Z,90.70
2019-03-01T13:12:58.828Z,90.60
2019-03-01T13:15:26.570Z,91.00
2019-03-01T13:17:56.191Z,91.00
2019-03-01T13:20:25.297Z,90.90
2019-03-01T13:22:54.443Z,91.10
2019-03-01T13:25:25.901Z,91.20
2019-03-01T13:27:54.259Z,91.40
2019-03-01T13:30:23.357Z,91.80
2019-03-01T13:32:52.462Z,91.80
2019-03-01T13:35:22.398Z,91.80
2019-03-01T13:37:55.595Z,91.80
2019-03-01T13:40:24.480Z,91.30
2019-03-01T13:42:54.037Z,91.20
2019-03-01T13:45:23.213Z,90.50
2019-03-01T13:47:52.325Z,90.30
2019-03-01T13:50:21.476Z,89.90
2019-03-01T13:52:50.915Z,89.70
2019-03-01T13:55:22.038Z,89.50
2019-03-01T13:57:51.393Z,89.70
2019-03-01T14:00:20.856Z,88.40
2019-03-01T14:02:50.026Z,87.40
2019-03-01T14:05:19.145Z,86.90
2019-03-01T14:07:48.528Z,86.70
2019-03-01T14:10:19.332Z,86.20
2019-03-01T14:12:48.502Z,86.80
2019-03-01T14:15:17.912Z,88.00
2019-03-01T14:17:47.024Z,87.80
2019-03-01T14:20:20.537Z,87.50
2019-03-01T14:22:49.198Z,87.50
2019-03-01T14:25:18.876Z,88.20
2019-03-01T14:27:48.042Z,88.60
2019-03-01T14:30:18.782Z,89.30
2019-03-01T14:32:48.012Z,90.10
2019-03-01T14:35:20.513Z,90.60
2019-03-01T14:37:51.116Z,90.40
2019-03-01T14:40:19.128Z,90.40
2019-03-01T14:42:50.032Z,90.60
2019-03-01T14:45:25.450Z,91.00
2019-03-01T14:47:57.018Z,91.20
2019-03-01T14:50:26.091Z,91.60
2019-03-01T14:52:58.373Z,91.50
2019-03-01T14:55:30.086Z,91.70
2019-03-01T14:58:23.522Z,91.80
2019-03-01T15:01:00.051Z,91.80
2019-03-01T15:03:31.167Z,91.60
2019-03-01T15:06:00.196Z,91.20
2019-03-01T15:08:29.330Z,90.90
2019-03-01T15:11:00.399Z,90.90
2019-03-01T15:13:31.367Z,91.10
2019-03-01T15:16:01.104Z,91.10
2019-03-01T15:18:32.405Z,91.20
2019-03-01T15:21:05.597Z,91.30
2019-03-01T15:23:34.739Z,91.60
2019-03-01T15:26:03.798Z,91.70
2019-03-01T15:28:32.955Z,91.70
2019-03-01T15:31:02.515Z,91.90
2019-03-01T15:33:31.643Z,91.80
2019-03-01T15:36:00.760Z,91.80
2019-03-01T15:38:29.899Z,91.50
2019-03-01T15:40:58.929Z,91.40
2019-03-01T15:43:29.865Z,91.50
2019-03-01T15:45:59.621Z,91.30
2019-03-01T15:48:28.723Z,91.30
2019-03-01T15:50:59.161Z,91.30
2019-03-01T15:53:28.617Z,91.20
2019-03-01T15:55:57.731Z,91.30
2019-03-01T15:58:29.239Z,91.50
2019-03-01T16:00:58.388Z,91.70
2019-03-01T16:03:27.454Z,91.70
2019-03-01T16:05:56.572Z,91.60
2019-03-01T16:08:25.787Z,91.70
2019-03-01T16:10:54.777Z,91.90
2019-03-01T16:13:24.182Z,91.80
2019-03-01T16:15:53.344Z,91.80
2019-03-01T16:18:22.445Z,91.90
2019-03-01T16:20:51.474Z,92.00
2019-03-01T16:23:20.818Z,92.00
2019-03-01T16:25:53.158Z,92.20
2019-03-01T16:28:21.146Z,92.30
2019-03-01T16:30:53.199Z,92.40
2019-03-01T16:33:22.592Z,92.70
2019-03-01T16:35:52.537Z,92.60
2019-03-01T16:38:21.780Z,92.80
2019-03-01T16:40:50.862Z,93.00
2019-03-01T16:43:19.914Z,93.10
2019-03-01T16:45:49.204Z,93.50
2019-03-01T16:48:17.903Z,93.80
2019-03-01T16:50:46.564Z,94.00
2019-03-01T16:53:15.598Z,93.90
2019-03-01T16:55:44.311Z,94.00
2019-03-01T16:58:12.988Z,94.20
2019-03-01T17:00:41.627Z,94.20
2019-03-01T17:03:10.390Z,94.30
2019-03-01T17:05:39.688Z,94.30
2019-03-01T17:08:08.486Z,94.40
2019-03-01T17:10:38.019Z,94.40
2019-03-01T17:13:06.707Z,94.30
2019-03-01T17:15:35.429Z,94.50
2019-03-01T17:18:04.090Z,94.70
2019-03-01T17:20:37.466Z,95.10
2019-03-01T17:23:03.818Z,95.80
2019-03-01T17:25:32.691Z,95.70
2019-03-01T17:28:01.344Z,95.80
2019-03-01T17:30:30.721Z,95.90
2019-03-01T17:32:59.395Z,95.90
2019-03-01T17:35:28.112Z,95.90
2019-03-01T17:37:56.766Z,96.00
2019-03-01T17:40:25.429Z,96.10
2019-03-01T17:42:56.554Z,96.10
2019-03-01T17:45:24.473Z,96.00
2019-03-01T17:47:55.216Z,96.20
2019-03-01T17:50:23.610Z,95.90
2019-03-01T17:52:52.267Z,95.90
2019-03-01T17:55:20.922Z,96.10
2019-03-01T17:57:50.271Z,96.20
2019-03-01T18:00:25.394Z,96.20
2019-03-01T18:03:13.167Z,96.20
2019-03-01T18:05:41.783Z,96.30
2019-03-01T18:08:10.413Z,96.40
2019-03-01T18:10:39.090Z,96.40
2019-03-01T18:13:07.894Z,96.40
2019-03-01T18:15:36.577Z,96.30
2019-03-01T18:18:05.314Z,96.60
2019-03-01T18:20:37.470Z,96.70
2019-03-01T18:23:23.597Z,96.80
2019-03-01T18:25:52.531Z,96.90
2019-03-01T18:28:21.151Z,97.00
2019-03-01T18:30:54.991Z,97.10
2019-03-01T18:33:20.996Z,97.30
2019-03-01T18:35:52.422Z,97.40
2019-03-01T18:38:20.910Z,97.50
2019-03-01T18:40:51.834Z,97.50
2019-03-01T18:43:19.906Z,97.60
2019-03-01T18:45:48.549Z,97.70
2019-03-01T18:48:17.169Z,97.60
2019-03-01T18:50:45.878Z,97.70
2019-03-01T18:53:14.529Z,97.60
2019-03-01T18:55:43.147Z,97.60
2019-03-01T18:58:14.153Z,97.70
2019-03-01T19:00:42.326Z,97.60
2019-03-01T19:03:10.957Z,97.60
2019-03-01T19:05:40.298Z,97.70
2019-03-01T19:08:09.789Z,97.70
2019-03-01T19:10:38.410Z,97.70
2019-03-01T19:13:07.021Z,97.70
2019-03-01T19:15:35.669Z,97.70
2019-03-01T19:18:04.314Z,97.70
2019-03-01T19:20:33.126Z,97.70
2019-03-01T19:23:01.810Z,97.80
2019-03-01T19:25:30.438Z,97.90
2019-03-01T19:27:59.094Z,98.00
2019-03-01T19:30:27.855Z,98.00
2019-03-01T19:32:59.038Z,98.00
2019-03-01T19:35:29.745Z,98.00
2019-03-01T19:37:57.218Z,98.00
2019-03-01T19:40:25.833Z,98.20
2019-03-01T19:42:54.619Z,98.20
2019-03-01T19:45:23.278Z,98.30
2019-03-01T19:47:51.902Z,98.30
2019-03-01T19:50:21.819Z,98.30
2019-03-01T19:52:51.209Z,98.40
2019-03-01T19:55:19.962Z,98.50
2019-03-01T19:57:49.150Z,98.50
2019-03-01T20:00:22.226Z,98.60
2019-03-01T20:02:50.994Z,98.60
2019-03-01T20:05:21.749Z,98.80
2019-03-01T20:07:51.785Z,98.80
2019-03-01T20:10:21.790Z,98.80
2019-03-01T20:12:50.587Z,99.10
2019-03-01T20:15:20.810Z,98.80
2019-03-01T20:17:49.550Z,98.80
2019-03-01T20:20:19.111Z,98.80
2019-03-01T20:22:50.509Z,98.80
2019-03-01T20:25:18.141Z,98.80
2019-03-01T20:27:47.456Z,98.80
2019-03-01T20:30:18.279Z,98.80
2019-03-01T20:32:47.427Z,98.90
2019-03-01T20:35:17.294Z,98.80
2019-03-01T20:37:46.024Z,98.80
2019-03-01T20:40:14.990Z,98.80
2019-03-01T20:42:43.697Z,98.80
2019-03-01T20:45:18.117Z,98.70
2019-03-01T20:47:46.750Z,98.70
2019-03-01T20:50:15.690Z,98.70
2019-03-01T20:52:44.536Z,98.70
2019-03-01T20:55:13.198Z,98.60
2019-03-01T20:57:42.131Z,98.60
2019-03-01T21:00:12.813Z,98.60
2019-03-01T21:02:41.571Z,98.60
2019-03-01T21:05:10.687Z,98.50
2019-03-01T21:07:39.466Z,98.50
2019-03-01T21:10:16.067Z,98.30
2019-03-01T21:12:44.556Z,98.20
2019-03-01T21:15:13.786Z,98.10
2019-03-01T21:17:42.429Z,98.00
2019-03-01T21:20:12.001Z,98.00
2019-03-01T21:22:40.998Z,98.00
2019-03-01T21:25:11.194Z,98.00
2019-03-01T21:27:39.894Z,98.00
2019-03-01T21:30:15.114Z,98.00
2019-03-01T21:32:47.007Z,98.20
2019-03-01T21:35:16.687Z,98.00
2019-03-01T21:37:44.826Z,98.00
2019-03-01T21:40:13.506Z,98.10
2019-03-01T21:42:42.178Z,98.10
2019-03-01T21:45:12.677Z,98.10
2019-03-01T21:47:44.595Z,98.10
2019-03-01T21:50:11.805Z,98.10
2019-03-01T21:52:40.562Z,98.10
2019-03-01T21:55:10.605Z,98.10
2019-03-01T21:57:39.225Z,98.00
2019-03-01T22:00:16.622Z,98.00
2019-03-01T22:02:48.697Z,97.90
2019-03-01T22:05:15.847Z,97.90
2019-03-01T22:07:44.827Z,97.90
2019-03-01T22:10:13.465Z,97.90
2019-03-01T22:12:42.270Z,97.90
2019-03-01T22:15:13.595Z,97.90
2019-03-01T22:17:45.353Z,97.90
2019-03-01T22:20:12.800Z,98.00
2019-03-01T22:22:41.554Z,98.00
2019-03-01T22:25:10.375Z,98.00
2019-03-01T22:27:38.984Z,98.00
2019-03-01T22:30:09.510Z,98.10
2019-03-01T22:32:38.157Z,98.10
2019-03-01T22:35:09.413Z,98.20
2019-03-01T22:37:37.190Z,98.20
2019-03-01T22:40:07.159Z,98.30
2019-03-01T22:42:35.787Z,98.50
2019-03-01T22:45:04.594Z,98.70
2019-03-01T22:47:36.031Z,99.10
2019-03-01T22:50:06.793Z,99.10
2019-03-01T22:52:34.499Z,99.20
2019-03-01T22:55:03.121Z,99.30
2019-03-01T22:57:31.906Z,99.40
2019-03-01T23:00:00.973Z,99.50
